Time;durP1;ratioP1;P1;durP2;ratioP2;P2;SDS_P1;SDS_P2;PMS_P1;PMS_P2;Temp;Humidity;BMP_temperature;BMP_pressure;BME280_temperature;BME280_humidity;BME280_pressure;Samples;Min_cycle;Max_cycle;Signal;HPM_P1;HPM_P2
2023/08/06 00:00:08;;;;;;;7.60;4.95;;;15.00;99.90;;;;;;5053341;28;20032;-77
2023/08/06 00:02:33;;;;;;;7.68;5.15;;;15.00;99.90;;;;;;5053313;28;20043;-78
2023/08/06 00:04:59;;;;;;;7.97;5.32;;;15.00;99.90;;;;;;5053583;28;20358;-77
2023/08/06 00:07:25;;;;;;;9.82;6.10;;;15.00;99.90;;;;;;5053858;28;20458;-78
2023/08/06 00:09:50;;;;;;;11.02;5.63;;;15.10;99.90;;;;;;5053249;28;20078;-77
2023/08/06 00:12:16;;;;;;;9.30;5.88;;;15.00;99.90;;;;;;5053801;28;20407;-77
2023/08/06 00:14:42;;;;;;;10.50;6.68;;;15.00;99.90;;;;;;5053657;28;20036;-78
2023/08/06 00:17:08;;;;;;;17.00;6.88;;;15.00;99.90;;;;;;5053375;28;20033;-78
2023/08/06 00:19:33;;;;;;;11.68;6.57;;;15.00;99.90;;;;;;5053839;28;20025;-78
2023/08/06 00:21:59;;;;;;;11.23;6.63;;;15.00;99.90;;;;;;5053312;28;20095;-78
2023/08/06 00:24:25;;;;;;;13.40;6.75;;;15.10;99.90;;;;;;5053237;28;20037;-77
2023/08/06 00:26:50;;;;;;;12.55;6.57;;;15.00;99.90;;;;;;5053700;28;20452;-77
2023/08/06 00:29:16;;;;;;;11.70;6.80;;;15.00;99.90;;;;;;5053166;28;20056;-77
2023/08/06 00:31:41;;;;;;;11.32;6.95;;;15.00;99.90;;;;;;5053148;28;20332;-77
2023/08/06 00:34:07;;;;;;;14.52;6.90;;;15.00;99.90;;;;;;5052775;28;20032;-77
2023/08/06 00:36:33;;;;;;;10.02;6.53;;;15.00;99.90;;;;;;5053075;28;20047;-77
2023/08/06 00:38:58;;;;;;;11.27;6.85;;;14.90;99.90;;;;;;5053038;28;20025;-77
2023/08/06 00:41:24;;;;;;;10.32;6.88;;;15.00;99.90;;;;;;5052788;28;20017;-77
2023/08/06 00:43:49;;;;;;;10.43;6.20;;;15.00;99.90;;;;;;5053279;28;20017;-77
2023/08/06 00:46:15;;;;;;;10.30;6.40;;;14.90;99.90;;;;;;5053185;28;20017;-78
2023/08/06 00:48:42;;;;;;;13.02;6.70;;;14.90;99.90;;;;;;5056693;28;20040;-78
2023/08/06 00:51:12;;;;;;;9.63;6.38;;;14.90;99.90;;;;;;5056671;28;20129;-77
2023/08/06 00:53:39;;;;;;;9.77;6.53;;;15.00;99.90;;;;;;5056505;28;20029;-77
2023/08/06 00:56:06;;;;;;;9.48;6.15;;;15.00;99.90;;;;;;5056613;28;20032;-77
2023/08/06 00:58:32;;;;;;;8.13;5.95;;;14.90;99.90;;;;;;5056801;28;20044;-77
2023/08/06 01:00:57;;;;;;;10.38;6.25;;;14.90;99.90;;;;;;5056401;28;20453;-77
2023/08/06 01:03:23;;;;;;;9.57;6.25;;;14.80;99.90;;;;;;5056636;28;20021;-78
2023/08/06 01:05:49;;;;;;;10.82;6.18;;;14.90;99.90;;;;;;5056401;28;20079;-77
2023/08/06 01:08:43;;;;;;;10.95;6.20;;;14.90;99.90;;;;;;5056603;28;20449;-77
2023/08/06 01:11:27;;;;;;;12.77;6.07;;;14.80;99.90;;;;;;5056288;28;20028;-76
2023/08/06 01:14:10;;;;;;;10.07;5.82;;;14.80;99.90;;;;;;5056655;28;20021;-76
2023/08/06 01:16:36;;;;;;;10.45;6.10;;;14.80;99.90;;;;;;5056246;28;20032;-77
2023/08/06 01:19:02;;;;;;;11.95;6.13;;;14.80;99.90;;;;;;5056386;28;20095;-77
2023/08/06 01:21:28;;;;;;;8.02;6.13;;;14.80;99.90;;;;;;5055926;28;20458;-77
2023/08/06 01:23:53;;;;;;;12.73;5.78;;;14.80;99.90;;;;;;5056228;28;20052;-77
2023/08/06 01:26:59;;;;;;;9.20;6.03;;;14.80;99.90;;;;;;5056174;28;20017;-78
2023/08/06 01:30:07;;;;;;;10.77;6.53;;;14.80;99.90;;;;;;5055854;28;20353;-76
2023/08/06 01:32:35;;;;;;;17.90;5.85;;;14.80;99.90;;;;;;5055047;28;20029;-76
2023/08/06 01:35:03;;;;;;;48.15;6.32;;;14.80;99.90;;;;;;5055633;28;20024;-76
2023/08/06 01:37:29;;;;;;;51.42;7.90;;;14.70;99.90;;;;;;5055922;28;20086;-78
2023/08/06 01:39:55;;;;;;;35.92;6.25;;;14.70;99.90;;;;;;5055592;28;20020;-76
2023/08/06 01:42:21;;;;;;;20.50;6.80;;;14.80;99.90;;;;;;5056071;28;20457;-76
2023/08/06 01:44:46;;;;;;;23.65;6.63;;;14.80;99.90;;;;;;5055481;28;20074;-76
2023/08/06 01:47:12;;;;;;;10.32;6.30;;;14.80;99.90;;;;;;5056073;28;20422;-77
2023/08/06 01:49:38;;;;;;;9.13;5.75;;;14.80;99.90;;;;;;5055337;28;20455;-76
2023/08/06 01:52:03;;;;;;;17.83;7.07;;;14.80;99.90;;;;;;5055623;28;20025;-76
2023/08/06 01:54:29;;;;;;;11.75;6.32;;;14.80;99.90;;;;;;5055793;28;20057;-77
2023/08/06 01:56:55;;;;;;;14.80;7.00;;;14.70;99.90;;;;;;5055390;28;20036;-77
2023/08/06 01:59:21;;;;;;;10.18;6.90;;;14.80;99.90;;;;;;5055139;28;20030;-77
2023/08/06 02:01:46;;;;;;;9.48;6.38;;;14.80;99.90;;;;;;5055833;28;20025;-77
2023/08/06 02:04:12;;;;;;;9.88;6.65;;;14.80;99.90;;;;;;5055646;28;20029;-76
2023/08/06 02:06:37;;;;;;;13.93;7.78;;;14.80;99.90;;;;;;5055188;28;20461;-76
2023/08/06 02:09:03;;;;;;;13.18;6.82;;;14.90;99.90;;;;;;5055150;28;20071;-78
2023/08/06 02:11:29;;;;;;;10.68;6.40;;;14.80;99.90;;;;;;5055282;28;20065;-76
2023/08/06 02:13:54;;;;;;;10.90;6.53;;;14.80;99.90;;;;;;5054907;28;20021;-77
2023/08/06 02:16:20;;;;;;;11.07;6.78;;;14.80;99.90;;;;;;5054895;28;20074;-77
2023/08/06 02:18:45;;;;;;;10.45;6.40;;;14.70;99.90;;;;;;5054460;28;20017;-78
2023/08/06 02:21:11;;;;;;;12.43;6.93;;;14.70;99.90;;;;;;5054816;28;20067;-78
2023/08/06 02:23:36;;;;;;;11.77;6.78;;;14.70;99.90;;;;;;5054818;28;20338;-78
2023/08/06 02:26:03;;;;;;;11.32;7.53;;;14.70;99.90;;;;;;5054809;28;20025;-77
2023/08/06 02:28:30;;;;;;;13.43;7.20;;;14.70;99.90;;;;;;5054775;28;20036;-77
2023/08/06 02:30:56;;;;;;;12.60;7.57;;;14.70;99.90;;;;;;5054965;28;20040;-77
2023/08/06 02:33:21;;;;;;;13.18;7.30;;;14.70;99.90;;;;;;5054301;28;20029;-78
2023/08/06 02:35:47;;;;;;;11.48;7.60;;;14.70;99.90;;;;;;5054584;28;20024;-77
2023/08/06 02:38:13;;;;;;;13.65;7.28;;;14.70;99.90;;;;;;5054515;28;20079;-77
2023/08/06 02:40:46;;;;;;;10.40;6.65;;;14.80;99.90;;;;;;5054496;28;20013;-77
2023/08/06 02:43:12;;;;;;;9.40;5.45;;;14.70;99.90;;;;;;5054480;28;20029;-76
2023/08/06 02:45:37;;;;;;;11.02;6.95;;;14.70;99.90;;;;;;5054414;28;20060;-77
2023/08/06 02:48:03;;;;;;;9.75;5.78;;;14.80;99.90;;;;;;5053781;28;20098;-77
2023/08/06 02:50:29;;;;;;;11.13;6.13;;;14.70;99.90;;;;;;5054639;28;20039;-77
2023/08/06 02:52:54;;;;;;;10.25;6.03;;;14.70;99.90;;;;;;5054117;28;20166;-76
2023/08/06 02:55:20;;;;;;;9.73;6.00;;;14.60;99.90;;;;;;5054257;28;20079;-77
2023/08/06 02:57:47;;;;;;;9.85;5.57;;;14.70;99.90;;;;;;5053835;28;20477;-77
2023/08/06 03:00:12;;;;;;;9.50;5.63;;;14.70;99.90;;;;;;5054070;28;20029;-77
2023/08/06 03:02:38;;;;;;;11.50;5.80;;;14.70;99.90;;;;;;5054069;28;20033;-77
2023/08/06 03:05:06;;;;;;;8.25;5.80;;;14.70;99.90;;;;;;5054034;28;20024;-77
2023/08/06 03:07:33;;;;;;;9.10;5.70;;;14.70;99.90;;;;;;5053981;28;20032;-78
2023/08/06 03:10:00;;;;;;;8.68;5.80;;;14.70;99.90;;;;;;5053425;28;20071;-77
2023/08/06 03:12:26;;;;;;;10.80;5.82;;;14.60;99.90;;;;;;5053815;28;20029;-77
2023/08/06 03:14:51;;;;;;;12.02;5.72;;;14.60;99.90;;;;;;5053724;28;20036;-76
2023/08/06 03:17:17;;;;;;;8.88;5.75;;;14.60;99.90;;;;;;5053986;28;20508;-78
2023/08/06 03:19:43;;;;;;;9.15;5.72;;;14.60;99.90;;;;;;5053747;28;20017;-78
2023/08/06 03:22:08;;;;;;;8.65;5.50;;;14.60;99.90;;;;;;5053666;28;20059;-77
2023/08/06 03:24:34;;;;;;;13.38;6.05;;;14.60;99.90;;;;;;5053668;28;20124;-78
2023/08/06 03:26:59;;;;;;;8.48;4.80;;;14.60;99.90;;;;;;5053656;28;20339;-77
2023/08/06 03:29:25;;;;;;;12.70;5.38;;;14.60;99.90;;;;;;5053885;28;20021;-76
2023/08/06 03:31:52;;;;;;;8.07;5.43;;;14.60;99.90;;;;;;5053818;28;20488;-77
2023/08/06 03:34:17;;;;;;;9.60;5.57;;;14.60;99.90;;;;;;5053186;28;20040;-76
2023/08/06 03:36:43;;;;;;;11.73;5.57;;;14.50;99.90;;;;;;5054077;28;20021;-76
2023/08/06 03:39:09;;;;;;;8.63;5.15;;;14.60;99.90;;;;;;5053478;28;20025;-77
2023/08/06 03:41:34;;;;;;;10.13;4.80;;;14.60;99.90;;;;;;5053185;28;20021;-78
2023/08/06 03:44:02;;;;;;;7.50;5.30;;;14.50;99.90;;;;;;5053397;28;20116;-78
2023/08/06 03:46:28;;;;;;;7.47;5.28;;;14.40;99.90;;;;;;5053313;28;20028;-76
2023/08/06 03:48:53;;;;;;;9.15;5.50;;;14.50;99.90;;;;;;5053178;28;20127;-77
2023/08/06 03:51:19;;;;;;;7.43;5.28;;;14.40;99.90;;;;;;5053090;28;20535;-77
2023/08/06 03:53:45;;;;;;;11.90;5.10;;;14.50;99.90;;;;;;5053275;28;20075;-76
2023/08/06 03:56:10;;;;;;;7.53;4.40;;;14.50;99.90;;;;;;5053836;28;20029;-76
2023/08/06 03:58:36;;;;;;;11.82;4.70;;;14.50;99.90;;;;;;5053603;28;20053;-78
2023/08/06 04:01:03;;;;;;;9.38;4.63;;;14.40;99.90;;;;;;5053279;28;20079;-79
2023/08/06 04:03:29;;;;;;;9.93;4.65;;;14.40;99.90;;;;;;5053233;28;20131;-76
2023/08/06 04:05:54;;;;;;;8.82;4.80;;;14.40;99.90;;;;;;5054044;28;20021;-77
2023/08/06 04:08:20;;;;;;;9.73;4.95;;;14.30;99.90;;;;;;5053228;28;20025;-77
2023/08/06 04:10:49;;;;;;;9.25;4.60;;;14.20;99.90;;;;;;5053494;28;20108;-78
2023/08/06 04:13:15;;;;;;;8.32;4.45;;;14.10;99.90;;;;;;5052788;28;20373;-78
2023/08/06 04:15:40;;;;;;;7.85;4.53;;;14.10;99.90;;;;;;5053171;28;20040;-78
2023/08/06 04:18:06;;;;;;;11.20;4.88;;;14.10;99.90;;;;;;5052879;28;20028;-78
2023/08/06 04:20:32;;;;;;;6.97;4.60;;;14.10;99.90;;;;;;5053890;28;20484;-78
2023/08/06 04:22:57;;;;;;;9.15;4.45;;;14.10;99.90;;;;;;5056016;28;20028;-78
2023/08/06 04:25:23;;;;;;;9.32;4.47;;;14.00;99.90;;;;;;5057046;28;20031;-77
2023/08/06 04:27:49;;;;;;;8.52;4.20;;;14.00;99.90;;;;;;5056915;28;20390;-77
2023/08/06 04:30:15;;;;;;;6.95;4.38;;;14.00;99.90;;;;;;5057256;28;20052;-78
2023/08/06 04:32:41;;;;;;;7.28;3.75;;;14.00;99.90;;;;;;5056807;28;20021;-77
2023/08/06 04:35:06;;;;;;;6.68;3.80;;;13.90;99.90;;;;;;5056771;28;20527;-78
2023/08/06 04:37:32;;;;;;;5.97;3.63;;;13.90;99.90;;;;;;5056787;28;20028;-77
2023/08/06 04:39:58;;;;;;;7.00;3.83;;;14.00;99.90;;;;;;5056750;28;20401;-77
2023/08/06 04:42:23;;;;;;;7.65;3.72;;;14.00;99.90;;;;;;5057080;28;20088;-77
2023/08/06 04:44:50;;;;;;;7.95;3.95;;;14.00;99.90;;;;;;5056829;28;20056;-76
2023/08/06 04:47:15;;;;;;;5.53;3.17;;;14.00;99.90;;;;;;5056561;28;20021;-77
2023/08/06 04:49:41;;;;;;;6.40;3.30;;;13.90;99.90;;;;;;5056344;28;20045;-77
2023/08/06 04:52:07;;;;;;;9.50;4.00;;;13.90;99.90;;;;;;5056857;28;20032;-76
2023/08/06 04:54:33;;;;;;;7.07;3.55;;;13.90;99.90;;;;;;5056378;28;20033;-74
2023/08/06 04:56:59;;;;;;;9.23;3.55;;;14.00;99.90;;;;;;5056410;28;20025;-78
2023/08/06 04:59:25;;;;;;;7.50;3.15;;;14.00;99.90;;;;;;5056326;28;20024;-77
2023/08/06 05:01:50;;;;;;;9.27;3.45;;;14.00;99.90;;;;;;5056671;28;20140;-78
2023/08/06 05:04:16;;;;;;;8.93;3.40;;;14.10;99.90;;;;;;5056495;28;20021;-77
2023/08/06 05:06:41;;;;;;;6.03;2.92;;;14.10;99.90;;;;;;5056031;28;20028;-77
2023/08/06 05:09:07;;;;;;;6.68;3.08;;;14.10;99.90;;;;;;5056194;28;20021;-78
2023/08/06 05:11:33;;;;;;;7.97;3.70;;;14.10;99.90;;;;;;5056235;28;20037;-77
2023/08/06 05:13:58;;;;;;;6.50;3.05;;;14.10;99.90;;;;;;5056512;28;20358;-78
2023/08/06 05:16:24;;;;;;;7.43;3.35;;;14.10;99.90;;;;;;5056067;28;20530;-78
2023/08/06 05:18:49;;;;;;;4.18;2.30;;;14.00;99.90;;;;;;5056447;28;20036;-80
2023/08/06 05:21:16;;;;;;;7.90;2.60;;;13.90;99.90;;;;;;5055638;28;20032;-77
2023/08/06 05:23:42;;;;;;;7.68;2.55;;;13.90;99.90;;;;;;5056682;28;20036;-77
2023/08/06 05:26:08;;;;;;;6.53;2.63;;;13.80;99.90;;;;;;5055909;28;20391;-77
2023/08/06 05:28:34;;;;;;;7.30;2.83;;;13.80;99.90;;;;;;5055616;28;20028;-78
2023/08/06 05:31:04;;;;;;;7.75;2.80;;;13.80;99.90;;;;;;5055797;28;20025;-78
2023/08/06 05:33:30;;;;;;;5.82;3.00;;;13.80;99.90;;;;;;5055526;28;20090;-78
2023/08/06 05:35:55;;;;;;;7.82;3.42;;;13.80;99.90;;;;;;5055702;28;20017;-79
2023/08/06 05:38:21;;;;;;;5.35;2.58;;;13.80;99.90;;;;;;5055670;28;20017;-80
2023/08/06 05:40:47;;;;;;;7.57;2.60;;;13.80;99.90;;;;;;5055953;28;20083;-80
2023/08/06 05:43:13;;;;;;;5.25;2.47;;;13.70;99.90;;;;;;5055594;28;20021;-75
2023/08/06 05:45:38;;;;;;;6.90;1.90;;;13.70;99.90;;;;;;5055931;28;20032;-76
2023/08/06 05:48:04;;;;;;;5.72;2.10;;;13.70;99.90;;;;;;5055091;28;20127;-76
2023/08/06 05:50:30;;;;;;;4.10;2.00;;;13.70;99.90;;;;;;5055542;28;20025;-78
2023/08/06 05:52:55;;;;;;;3.83;1.95;;;13.70;99.90;;;;;;5055446;28;20028;-77
2023/08/06 05:55:21;;;;;;;5.68;2.10;;;13.70;99.90;;;;;;5055621;28;20071;-78
2023/08/06 05:57:47;;;;;;;5.75;2.03;;;13.70;99.90;;;;;;5055549;28;20392;-74
2023/08/06 06:00:13;;;;;;;4.63;1.70;;;13.70;99.90;;;;;;5055779;28;20021;-78
2023/08/06 06:02:38;;;;;;;7.78;1.98;;;13.60;99.90;;;;;;5055461;28;20070;-74
2023/08/06 06:05:04;;;;;;;6.40;1.90;;;13.60;99.90;;;;;;5054961;28;20029;-76
2023/08/06 06:07:30;;;;;;;9.52;2.17;;;13.60;99.90;;;;;;5055431;28;20365;-78
2023/08/06 06:09:56;;;;;;;6.28;1.92;;;13.60;99.90;;;;;;5054847;28;20107;-77
2023/08/06 06:12:22;;;;;;;3.95;1.90;;;13.60;99.90;;;;;;5055036;28;20021;-77
2023/08/06 06:14:48;;;;;;;6.28;2.38;;;13.60;99.90;;;;;;5055019;28;20437;-79
2023/08/06 06:17:13;;;;;;;6.05;2.03;;;13.60;99.90;;;;;;5054901;28;20052;-75
2023/08/06 06:19:39;;;;;;;5.97;2.08;;;13.60;99.90;;;;;;5055161;28;20032;-76
2023/08/06 06:22:05;;;;;;;5.70;2.05;;;13.70;99.90;;;;;;5055125;28;20408;-77
2023/08/06 06:24:31;;;;;;;6.13;2.28;;;13.70;99.90;;;;;;5054507;28;20028;-80
2023/08/06 06:26:56;;;;;;;8.40;2.22;;;13.70;99.90;;;;;;5054804;28;20043;-78
2023/08/06 06:29:22;;;;;;;5.65;2.30;;;13.80;99.90;;;;;;5054991;28;20025;-80
2023/08/06 06:31:48;;;;;;;5.60;1.80;;;13.80;99.90;;;;;;5054731;28;20108;-79
2023/08/06 06:34:13;;;;;;;3.92;1.83;;;13.80;99.90;;;;;;5054816;28;20032;-80
2023/08/06 06:36:39;;;;;;;5.85;2.05;;;13.90;99.90;;;;;;5054346;28;20017;-83
2023/08/06 06:39:05;;;;;;;5.03;2.08;;;13.90;99.90;;;;;;5054549;28;20021;-78
2023/08/06 06:41:32;;;;;;;3.78;1.70;;;13.90;99.90;;;;;;5054420;28;20515;-81
2023/08/06 06:43:58;;;;;;;6.40;2.05;;;13.80;99.90;;;;;;5053438;28;20032;-80
2023/08/06 06:46:24;;;;;;;3.70;1.50;;;13.80;99.90;;;;;;5054516;28;20028;-78
2023/08/06 06:48:49;;;;;;;3.17;1.67;;;13.80;99.90;;;;;;5054296;28;20078;-79
2023/08/06 06:51:15;;;;;;;3.75;2.10;;;13.90;99.90;;;;;;5054863;28;20041;-79
2023/08/06 06:53:41;;;;;;;5.85;1.58;;;13.80;99.90;;;;;;5054141;28;20036;-78
2023/08/06 06:56:06;;;;;;;5.60;2.15;;;13.90;99.90;;;;;;5054275;28;20029;-76
2023/08/06 06:58:32;;;;;;;4.72;1.52;;;13.90;99.90;;;;;;5054499;28;20096;-78
2023/08/06 07:00:58;;;;;;;3.58;1.20;;;13.90;99.90;;;;;;5054753;28;20143;-80
2023/08/06 07:03:24;;;;;;;6.70;1.67;;;13.80;99.90;;;;;;5053860;28;20021;-81
2023/08/06 07:05:50;;;;;;;4.70;1.63;;;13.90;99.90;;;;;;5054464;28;20028;-77
2023/08/06 07:08:16;;;;;;;4.38;1.25;;;13.90;99.90;;;;;;5054295;28;20025;-79
2023/08/06 07:10:42;;;;;;;5.25;1.10;;;13.90;99.90;;;;;;5054594;28;20349;-79
2023/08/06 07:13:11;;;;;;;4.47;1.10;;;13.90;99.90;;;;;;5054579;28;20408;-78
2023/08/06 07:15:37;;;;;;;2.70;1.00;;;14.00;99.90;;;;;;5053617;28;20414;-80
2023/08/06 07:18:02;;;;;;;5.35;1.10;;;14.00;99.90;;;;;;5053775;28;20107;-78
2023/08/06 07:20:32;;;;;;;6.70;1.38;;;14.10;99.90;;;;;;5053776;28;20114;-80
2023/08/06 07:22:59;;;;;;;3.97;1.40;;;14.00;99.90;;;;;;5054669;28;20138;-77
2023/08/06 07:25:24;;;;;;;4.35;0.95;;;14.00;99.90;;;;;;5053466;28;20445;-76
2023/08/06 07:27:50;;;;;;;6.18;1.73;;;13.90;99.90;;;;;;5053622;28;20091;-77
2023/08/06 07:30:15;;;;;;;6.82;1.10;;;13.80;99.90;;;;;;5054079;28;20104;-75
2023/08/06 07:32:41;;;;;;;7.47;1.35;;;13.80;99.90;;;;;;5053450;28;20064;-75
2023/08/06 07:35:09;;;;;;;4.00;1.27;;;13.80;99.90;;;;;;5053789;28;20083;-77
2023/08/06 07:37:35;;;;;;;3.92;1.83;;;13.80;99.90;;;;;;5053138;28;20291;-78
2023/08/06 07:40:00;;;;;;;4.00;1.70;;;13.70;99.90;;;;;;5053873;28;20044;-77
2023/08/06 07:42:26;;;;;;;2.53;1.15;;;13.70;99.90;;;;;;5053473;28;20127;-76
2023/08/06 07:44:53;;;;;;;5.38;1.73;;;13.70;99.90;;;;;;5053441;28;20025;-75
2023/08/06 07:47:19;;;;;;;3.33;1.40;;;13.80;99.90;;;;;;5053090;28;20412;-81
2023/08/06 07:49:45;;;;;;;5.43;1.00;;;13.90;99.90;;;;;;5053902;28;20098;-80
2023/08/06 07:52:11;;;;;;;4.55;1.10;;;13.90;99.90;;;;;;5053201;28;20147;-79
2023/08/06 07:54:36;;;;;;;5.78;0.98;;;14.00;99.90;;;;;;5053035;28;20029;-74
2023/08/06 07:57:02;;;;;;;3.03;1.00;;;14.00;99.90;;;;;;5059329;28;20025;-75
2023/08/06 07:59:28;;;;;;;2.78;0.95;;;14.00;99.90;;;;;;5060217;28;20382;-77
2023/08/06 08:01:53;;;;;;;3.92;1.45;;;14.20;99.90;;;;;;5059665;28;20020;-77
2023/08/06 08:04:20;;;;;;;4.35;1.00;;;14.20;99.90;;;;;;5059648;28;20025;-77
2023/08/06 08:06:47;;;;;;;1.88;0.98;;;14.10;99.90;;;;;;5060477;28;20016;-77
2023/08/06 08:09:13;;;;;;;2.40;0.95;;;14.00;99.90;;;;;;5059852;28;20013;-76
2023/08/06 08:11:39;;;;;;;1.60;0.52;;;13.90;99.90;;;;;;5059886;28;20024;-77
2023/08/06 08:14:05;;;;;;;3.50;0.85;;;13.90;99.90;;;;;;5059808;28;20025;-78
2023/08/06 08:16:30;;;;;;;1.38;0.50;;;13.90;99.90;;;;;;5059075;28;20078;-76
2023/08/06 08:18:56;;;;;;;0.60;0.40;;;13.90;99.90;;;;;;5060076;28;20107;-74
2023/08/06 08:21:24;;;;;;;0.95;0.30;;;13.80;99.90;;;;;;5060111;28;20111;-81
2023/08/06 08:23:50;;;;;;;2.00;0.43;;;13.60;99.90;;;;;;5058480;28;20485;-81
2023/08/06 08:26:15;;;;;;;2.80;0.40;;;13.50;99.90;;;;;;5059813;28;20017;-79
2023/08/06 08:28:41;;;;;;;1.45;0.65;;;13.50;99.90;;;;;;5059745;28;20096;-78
2023/08/06 08:31:11;;;;;;;1.88;0.30;;;13.40;99.90;;;;;;5059982;28;20030;-78
2023/08/06 08:33:39;;;;;;;0.97;0.40;;;13.40;99.90;;;;;;5059669;28;20404;-72
2023/08/06 08:36:05;;;;;;;2.97;0.35;;;13.50;99.90;;;;;;5059655;28;20338;-74
2023/08/06 08:38:30;;;;;;;2.25;0.30;;;13.40;99.90;;;;;;5059980;28;20455;-78
2023/08/06 08:40:56;;;;;;;3.50;0.20;;;13.40;99.90;;;;;;5059899;28;20361;-75
2023/08/06 08:43:23;;;;;;;0.93;0.40;;;13.40;99.90;;;;;;5059618;28;20025;-74
2023/08/06 08:45:50;;;;;;;0.68;0.30;;;13.40;99.90;;;;;;5059476;28;20036;-74
2023/08/06 08:48:17;;;;;;;0.82;0.38;;;13.40;99.90;;;;;;5059536;28;20045;-75
2023/08/06 08:50:48;;;;;;;0.85;0.40;;;13.50;99.90;;;;;;5059871;28;20442;-76
2023/08/06 08:53:15;;;;;;;;;;;13.50;99.90;;;;;;5060200;28;20414;-79
2023/08/06 08:55:42;;;;;;;0.63;0.40;;;13.50;99.90;;;;;;5059565;28;20281;-79
2023/08/06 08:58:08;;;;;;;2.10;0.70;;;13.60;99.90;;;;;;5059236;28;20055;-75
2023/08/06 09:00:35;;;;;;;2.35;0.47;;;13.60;99.90;;;;;;5059530;28;20021;-74
2023/08/06 09:03:01;;;;;;;0.60;0.22;;;13.70;99.90;;;;;;5059999;28;20021;-74
2023/08/06 09:05:30;;;;;;;2.15;0.30;;;13.70;99.90;;;;;;5059137;28;20034;-73
2023/08/06 09:08:02;;;;;;;2.25;0.50;;;13.70;99.90;;;;;;5057165;28;20024;-74
2023/08/06 09:10:28;;;;;;;1.95;0.30;;;13.70;99.90;;;;;;5056360;28;20074;-74
2023/08/06 09:12:56;;;;;;;0.70;0.30;;;13.70;99.90;;;;;;5055933;28;20120;-75
2023/08/06 09:15:26;;;;;;;1.70;0.30;;;13.70;99.90;;;;;;5055814;28;20061;-75
2023/08/06 09:17:52;;;;;;;1.17;0.30;;;13.70;99.90;;;;;;5056515;28;20017;-75
2023/08/06 09:20:19;;;;;;;3.20;0.20;;;13.80;99.90;;;;;;5055832;28;20469;-75
2023/08/06 09:22:45;;;;;;;1.02;0.28;;;13.90;99.90;;;;;;5055764;28;20028;-73
2023/08/06 09:25:13;;;;;;;1.10;0.30;;;14.00;99.90;;;;;;5056489;28;20052;-75
2023/08/06 09:27:39;;;;;;;2.13;0.30;;;14.00;99.90;;;;;;5056266;28;20334;-72
2023/08/06 09:30:06;;;;;;;2.60;0.32;;;14.10;99.90;;;;;;5055712;28;20414;-74
2023/08/06 09:32:51;;;;;;;0.40;0.17;;;14.20;99.90;;;;;;5056146;28;20024;-74
2023/08/06 09:35:19;;;;;;;0.98;0.30;;;14.20;99.90;;;;;;5055712;28;20477;-72
2023/08/06 09:37:45;;;;;;;1.08;0.25;;;14.10;99.90;;;;;;5055846;28;20099;-74
2023/08/06 09:40:30;;;;;;;0.68;0.30;;;14.10;99.90;;;;;;5055823;28;20025;-75
2023/08/06 09:42:56;;;;;;;2.70;0.30;;;14.10;99.90;;;;;;5055763;28;20025;-74
2023/08/06 09:45:23;;;;;;;2.38;0.20;;;14.10;99.90;;;;;;5055698;28;20472;-75
2023/08/06 09:47:56;;;;;;;0.17;0.10;;;14.00;99.90;;;;;;5055463;28;20025;-73
2023/08/06 09:50:22;;;;;;;1.45;0.10;;;14.00;99.90;;;;;;5055655;28;20029;-77
2023/08/06 09:52:48;;;;;;;0.55;0.15;;;14.10;99.90;;;;;;5054731;28;20032;-74
2023/08/06 09:55:15;;;;;;;0.22;0.10;;;14.30;99.90;;;;;;5055924;28;20033;-75
2023/08/06 09:57:42;;;;;;;0.25;0.08;;;14.50;99.90;;;;;;5055571;28;20029;-75
2023/08/06 10:00:09;;;;;;;2.20;0.10;;;14.60;99.90;;;;;;5055330;28;20021;-75
2023/08/06 10:02:39;;;;;;;0.45;0.10;;;14.60;99.90;;;;;;5055628;28;20017;-74
2023/08/06 10:05:06;;;;;;;1.95;0.15;;;14.30;99.90;;;;;;5055579;28;20021;-72
2023/08/06 10:07:32;;;;;;;0.52;0.10;;;14.10;99.90;;;;;;5055204;28;20036;-73
2023/08/06 10:09:59;;;;;;;0.03;0.03;;;14.10;99.90;;;;;;5054463;28;20044;-77
2023/08/06 10:12:28;;;;;;;0.00;0.00;;;14.00;99.90;;;;;;5055120;28;20396;-80
2023/08/06 10:14:57;;;;;;;0.35;0.10;;;14.00;99.90;;;;;;5055027;28;20025;-79
2023/08/06 10:17:23;;;;;;;0.10;0.10;;;14.00;99.90;;;;;;5055153;28;20441;-76
2023/08/06 10:19:50;;;;;;;0.20;0.00;;;14.00;99.90;;;;;;5053855;28;20033;-78
2023/08/06 10:22:17;;;;;;;1.75;0.10;;;13.90;99.90;;;;;;5054630;28;20470;-79
2023/08/06 10:24:49;;;;;;;0.85;0.10;;;13.90;99.90;;;;;;5054939;28;20025;-78
2023/08/06 10:27:20;;;;;;;0.40;0.03;;;13.90;99.90;;;;;;5053541;28;20112;-79
2023/08/06 10:29:46;;;;;;;0.68;0.10;;;14.00;99.90;;;;;;5055385;28;20031;-79
2023/08/06 10:32:11;;;;;;;0.52;0.10;;;14.10;99.90;;;;;;5055191;28;20321;-77
2023/08/06 10:35:00;;;;;;;0.75;0.20;;;14.10;99.90;;;;;;5054628;28;20036;-78
2023/08/06 10:37:36;;;;;;;1.30;0.13;;;14.10;99.90;;;;;;5055033;28;20112;-76
2023/08/06 10:40:03;;;;;;;0.63;0.20;;;14.00;99.90;;;;;;5054625;28;20062;-80
2023/08/06 10:42:30;;;;;;;0.90;0.30;;;14.00;99.90;;;;;;5054337;28;20021;-79
2023/08/06 10:45:33;;;;;;;0.40;0.10;;;13.90;99.90;;;;;;5054972;28;20059;-78
2023/08/06 10:47:59;;;;;;;0.30;0.10;;;14.10;99.90;;;;;;5032136;28;20025;-78
2023/08/06 10:50:26;;;;;;;0.73;0.10;;;14.20;99.90;;;;;;5050236;28;20036;-76
2023/08/06 10:52:52;;;;;;;0.57;0.10;;;14.20;99.90;;;;;;5054327;28;20033;-76
2023/08/06 10:55:29;;;;;;;0.77;0.20;;;14.30;99.90;;;;;;5054550;28;20033;-78
2023/08/06 10:57:55;;;;;;;1.20;0.20;;;14.20;99.90;;;;;;5054650;28;20099;-79
2023/08/06 11:00:23;;;;;;;0.43;0.10;;;14.00;99.90;;;;;;5054498;28;20036;-75
2023/08/06 11:02:50;;;;;;;0.20;0.03;;;13.90;99.90;;;;;;5054530;28;20331;-78
2023/08/06 11:05:15;;;;;;;0.00;0.00;;;13.80;99.90;;;;;;5052991;28;20024;-77
2023/08/06 11:07:42;;;;;;;1.02;0.10;;;13.70;99.90;;;;;;5053440;28;20032;-73
2023/08/06 11:10:09;;;;;;;0.35;0.10;;;13.80;99.90;;;;;;5053956;28;20469;-80
2023/08/06 11:12:35;;;;;;;0.20;0.15;;;14.00;99.90;;;;;;5053848;28;20032;-76
2023/08/06 11:15:02;;;;;;;1.23;0.10;;;14.00;99.90;;;;;;5053994;28;20369;-77
2023/08/06 11:17:29;;;;;;;2.65;0.20;;;13.90;99.90;;;;;;5054104;28;20032;-78
2023/08/06 11:19:55;;;;;;;1.25;0.20;;;14.00;99.90;;;;;;5052716;28;20039;-77
2023/08/06 11:22:22;;;;;;;0.50;0.20;;;14.00;99.90;;;;;;5054478;28;20108;-79
2023/08/06 11:24:48;;;;;;;0.35;0.13;;;13.90;99.90;;;;;;5053909;28;20050;-75
2023/08/06 11:27:16;;;;;;;0.50;0.10;;;14.10;99.90;;;;;;5053832;28;20029;-75
2023/08/06 11:29:42;;;;;;;0.20;0.10;;;14.20;99.90;;;;;;5053861;28;20493;-80
2023/08/06 11:32:09;;;;;;;0.40;0.10;;;14.30;99.90;;;;;;5053600;28;20021;-79
2023/08/06 11:34:35;;;;;;;0.10;0.00;;;14.50;99.90;;;;;;5054131;28;20416;-79
2023/08/06 11:37:05;;;;;;;0.38;0.10;;;14.50;99.90;;;;;;5053654;28;20025;-76
2023/08/06 11:39:34;;;;;;;0.68;0.32;;;14.50;99.90;;;;;;5053786;28;20047;-78
2023/08/06 11:42:02;;;;;;;0.17;0.10;;;14.50;99.90;;;;;;5052345;28;20393;-81
2023/08/06 11:44:36;;;;;;;0.30;0.10;;;14.40;99.90;;;;;;5053683;28;20024;-75
2023/08/06 11:47:05;;;;;;;1.55;0.20;;;14.30;99.90;;;;;;5053870;28;20025;-75
2023/08/06 11:49:48;;;;;;;1.67;0.30;;;14.20;99.90;;;;;;5053255;28;20047;-73
2023/08/06 11:52:15;;;;;;;1.00;0.20;;;14.00;99.90;;;;;;5054547;28;20039;-78
2023/08/06 11:54:41;;;;;;;2.88;0.22;;;13.80;99.90;;;;;;5053601;28;20025;-78
2023/08/06 11:57:07;;;;;;;1.50;0.28;;;13.80;99.90;;;;;;5053575;28;20017;-80
2023/08/06 11:59:33;;;;;;;1.85;0.20;;;13.60;99.90;;;;;;5053473;28;20025;-76
2023/08/06 12:02:05;;;;;;;1.20;0.50;;;13.60;99.90;;;;;;5053442;28;20021;-80
2023/08/06 12:04:32;;;;;;;1.80;0.50;;;13.80;99.90;;;;;;5053505;28;20029;-75
2023/08/06 12:07:07;;;;;;;0.75;0.35;;;13.80;99.90;;;;;;5051990;28;20021;-75
2023/08/06 12:09:33;;;;;;;0.98;0.40;;;14.00;99.90;;;;;;5053615;28;20063;-79
2023/08/06 12:11:59;;;;;;;1.75;0.40;;;14.10;99.90;;;;;;5053639;28;20191;-73
2023/08/06 12:14:25;;;;;;;1.67;0.60;;;14.20;99.90;;;;;;5052030;28;20116;-77
2023/08/06 12:16:51;;;;;;;0.93;0.60;;;14.20;99.90;;;;;;5053313;28;20025;-75
2023/08/06 12:19:16;;;;;;;1.38;0.80;;;14.20;99.90;;;;;;5053627;28;20017;-80
2023/08/06 12:21:42;;;;;;;1.30;0.57;;;14.30;99.90;;;;;;5053211;28;20036;-80
2023/08/06 12:24:08;;;;;;;1.33;0.70;;;14.20;99.90;;;;;;5053195;28;20031;-78
2023/08/06 12:26:34;;;;;;;2.03;0.60;;;14.10;99.90;;;;;;5053214;28;20017;-79
2023/08/06 12:29:00;;;;;;;1.13;0.45;;;14.10;99.90;;;;;;5053245;28;20021;-78
2023/08/06 12:31:25;;;;;;;2.17;0.77;;;14.00;99.90;;;;;;5052822;28;20100;-78
2023/08/06 12:33:51;;;;;;;1.48;0.60;;;14.10;99.90;;;;;;5053076;28;20175;-78
2023/08/06 12:36:17;;;;;;;1.20;0.70;;;14.00;99.90;;;;;;5052871;28;20021;-73
2023/08/06 12:38:43;;;;;;;2.10;0.90;;;13.80;99.90;;;;;;5054003;28;20023;-77
2023/08/06 12:41:08;;;;;;;1.90;0.80;;;13.60;99.90;;;;;;5053452;28;20020;-79
2023/08/06 12:43:34;;;;;;;1.30;0.80;;;13.50;99.90;;;;;;5055829;28;20125;-77